createdAt,value
2017-12-31T00:00:32.503Z,992.7
2017-12-31T00:01:33.897Z,992.8
2017-12-31T00:02:35.284Z,992.8
2017-12-31T00:03:36.673Z,992.8
2017-12-31T00:04:38.059Z,992.8
2017-12-31T00:05:39.460Z,992.8
2017-12-31T00:06:40.848Z,992.8
2017-12-31T00:07:42.236Z,992.9
2017-12-31T00:08:43.628Z,992.8
2017-12-31T00:09:45.017Z,992.8
2017-12-31T00:10:46.413Z,992.8
2017-12-31T00:11:47.794Z,992.9
2017-12-31T00:12:49.184Z,992.9
2017-12-31T00:13:50.579Z,992.8
2017-12-31T00:14:51.970Z,992.8
2017-12-31T00:15:53.358Z,992.8
2017-12-31T00:16:54.781Z,992.8
2017-12-31T00:17:56.137Z,992.8
2017-12-31T00:18:57.528Z,992.8
2017-12-31T00:19:58.918Z,992.7
2017-12-31T00:21:00.344Z,992.8
2017-12-31T00:22:01.734Z,992.7
2017-12-31T00:23:03.122Z,992.7
2017-12-31T00:24:04.509Z,992.7
2017-12-31T00:25:05.899Z,992.7
2017-12-31T00:26:07.284Z,992.8
2017-12-31T00:27:08.672Z,992.8
2017-12-31T00:28:10.062Z,992.8
2017-12-31T00:29:11.451Z,992.8
2017-12-31T00:30:12.841Z,992.7
2017-12-31T00:31:14.230Z,992.7
2017-12-31T00:32:15.623Z,992.7
2017-12-31T00:33:17.008Z,992.7
2017-12-31T00:34:18.394Z,992.7
2017-12-31T00:35:19.782Z,992.7
2017-12-31T00:36:21.170Z,992.8
2017-12-31T00:37:22.561Z,992.8
2017-12-31T00:38:23.954Z,992.8
2017-12-31T00:39:25.340Z,992.8
2017-12-31T00:40:26.728Z,992.7
2017-12-31T00:41:28.119Z,992.8
2017-12-31T00:42:29.553Z,992.8
2017-12-31T00:43:30.899Z,992.8
2017-12-31T00:44:32.287Z,992.8
2017-12-31T00:45:33.676Z,992.8
2017-12-31T00:46:35.060Z,992.8
2017-12-31T00:47:36.449Z,992.8
2017-12-31T00:48:37.837Z,992.8
2017-12-31T00:49:39.224Z,992.8
2017-12-31T00:50:40.612Z,992.7
2017-12-31T00:51:42.002Z,992.7
2017-12-31T00:52:43.392Z,992.7
2017-12-31T00:53:44.779Z,992.7
2017-12-31T00:54:46.128Z,992.7
2017-12-31T00:55:47.512Z,992.8
2017-12-31T00:56:48.900Z,992.7
2017-12-31T00:57:50.287Z,992.8
2017-12-31T00:58:51.680Z,992.7
2017-12-31T00:59:53.069Z,992.7
2017-12-31T01:00:54.453Z,992.8
2017-12-31T01:01:55.837Z,992.8
2017-12-31T01:02:57.227Z,992.8
2017-12-31T01:03:58.617Z,992.8
2017-12-31T01:05:00.011Z,992.8
2017-12-31T01:06:01.399Z,992.8
2017-12-31T01:07:02.789Z,992.8
2017-12-31T01:08:04.177Z,992.8
2017-12-31T01:09:05.559Z,992.8
2017-12-31T01:10:06.948Z,992.8
2017-12-31T01:11:08.333Z,992.8
2017-12-31T01:12:09.787Z,992.7
2017-12-31T01:13:11.215Z,992.7
2017-12-31T01:14:12.603Z,992.6
2017-12-31T01:15:13.989Z,992.5
2017-12-31T01:16:15.379Z,992.6
2017-12-31T01:17:16.764Z,992.6
2017-12-31T01:18:18.149Z,992.6
2017-12-31T01:19:19.542Z,992.6
2017-12-31T01:20:20.929Z,992.6
2017-12-31T01:21:22.316Z,992.5
2017-12-31T01:22:23.702Z,992.5
2017-12-31T01:23:25.087Z,992.5
2017-12-31T01:24:26.473Z,992.6
2017-12-31T01:25:27.860Z,992.6
2017-12-31T01:26:29.249Z,992.5
2017-12-31T01:27:30.638Z,992.5
2017-12-31T01:28:32.027Z,992.5
2017-12-31T01:29:33.413Z,992.5
2017-12-31T01:30:34.800Z,992.6
2017-12-31T01:31:36.186Z,992.6
2017-12-31T01:32:37.576Z,992.5
2017-12-31T01:33:38.964Z,992.5
2017-12-31T01:34:40.354Z,992.5
2017-12-31T01:35:41.742Z,992.6
2017-12-31T01:36:43.125Z,992.6
2017-12-31T01:37:44.513Z,992.5
2017-12-31T01:38:45.901Z,992.4
2017-12-31T01:39:47.288Z,992.4
2017-12-31T01:40:48.681Z,992.4
2017-12-31T01:41:50.066Z,992.4
2017-12-31T01:42:51.465Z,992.5
2017-12-31T01:43:52.859Z,992.5
2017-12-31T01:44:54.239Z,992.5
2017-12-31T01:45:55.627Z,992.4
2017-12-31T01:46:57.012Z,992.4
2017-12-31T01:47:58.401Z,992.4
2017-12-31T01:48:59.793Z,992.3
2017-12-31T01:50:01.180Z,992.4
2017-12-31T01:51:02.568Z,992.3
2017-12-31T01:52:03.954Z,992.3
2017-12-31T01:53:05.341Z,992.3
2017-12-31T01:54:06.729Z,992.4
2017-12-31T01:55:08.120Z,992.4
2017-12-31T01:56:09.463Z,992.4
2017-12-31T01:57:10.853Z,992.3
2017-12-31T01:58:12.239Z,992.3
2017-12-31T01:59:13.627Z,992.3
2017-12-31T02:00:15.015Z,992.2
2017-12-31T02:01:16.401Z,992.2
2017-12-31T02:02:17.789Z,992.3
2017-12-31T02:03:19.174Z,992.2
2017-12-31T02:04:20.590Z,992.3
2017-12-31T02:05:22.042Z,992.2
2017-12-31T02:06:23.433Z,992.2
2017-12-31T02:07:24.819Z,992.1
2017-12-31T02:08:26.212Z,992.2
2017-12-31T02:09:27.596Z,992.2
2017-12-31T02:10:28.986Z,992.2
2017-12-31T02:11:30.393Z,992.1
2017-12-31T02:12:31.762Z,992.1
2017-12-31T02:13:33.149Z,992.1
2017-12-31T02:14:34.534Z,992.1
2017-12-31T02:15:35.922Z,992.1
2017-12-31T02:16:37.310Z,992.0
2017-12-31T02:17:38.697Z,992.0
2017-12-31T02:18:40.089Z,992.1
2017-12-31T02:19:41.478Z,992.1
2017-12-31T02:20:42.863Z,992.0
2017-12-31T02:21:44.249Z,992.0
2017-12-31T02:22:45.632Z,992.0
2017-12-31T02:23:47.022Z,992.0
2017-12-31T02:24:48.414Z,991.9
2017-12-31T02:25:49.801Z,991.9
2017-12-31T02:26:51.189Z,991.9
2017-12-31T02:27:52.572Z,991.9
2017-12-31T02:28:53.960Z,992.0
2017-12-31T02:29:55.349Z,991.9
2017-12-31T02:30:56.736Z,991.9
2017-12-31T02:31:58.127Z,991.9
2017-12-31T02:32:59.517Z,991.9
2017-12-31T02:34:00.900Z,991.9
2017-12-31T02:35:02.287Z,991.9
2017-12-31T02:36:03.675Z,992.0
2017-12-31T02:37:05.065Z,991.9
2017-12-31T02:38:06.451Z,992.0
2017-12-31T02:39:07.839Z,991.9
2017-12-31T02:40:09.229Z,991.9
2017-12-31T02:41:10.616Z,991.9
2017-12-31T02:42:12.003Z,991.8
2017-12-31T02:43:13.387Z,991.9
2017-12-31T02:44:14.772Z,991.8
2017-12-31T02:45:16.161Z,991.8
2017-12-31T02:46:17.552Z,991.8
2017-12-31T02:47:18.941Z,991.7
2017-12-31T02:48:20.328Z,991.7
2017-12-31T02:49:21.714Z,991.7
2017-12-31T02:50:23.101Z,991.6
2017-12-31T02:51:24.485Z,991.7
2017-12-31T02:52:25.875Z,991.6
2017-12-31T02:53:27.264Z,991.6
2017-12-31T02:54:28.657Z,991.6
2017-12-31T02:55:30.041Z,991.6
2017-12-31T02:56:31.506Z,991.6
2017-12-31T02:57:32.875Z,991.6
2017-12-31T02:58:34.263Z,991.5
2017-12-31T02:59:35.652Z,991.5
2017-12-31T03:00:37.038Z,991.5
2017-12-31T03:01:38.424Z,991.3
2017-12-31T03:02:39.810Z,991.4
2017-12-31T03:03:41.199Z,991.4
2017-12-31T03:04:42.585Z,991.4
2017-12-31T03:05:43.978Z,991.4
2017-12-31T03:06:45.365Z,991.4
2017-12-31T03:07:46.750Z,991.5
2017-12-31T03:08:48.141Z,991.5
2017-12-31T03:09:49.525Z,991.6
2017-12-31T03:10:50.913Z,991.4
2017-12-31T03:11:52.299Z,991.4
2017-12-31T03:12:53.687Z,991.4
2017-12-31T03:13:55.074Z,991.4
2017-12-31T03:14:56.461Z,991.3
2017-12-31T03:15:57.851Z,991.3
2017-12-31T03:16:59.238Z,991.3
2017-12-31T03:18:00.622Z,991.3
2017-12-31T03:19:02.010Z,991.2
2017-12-31T03:20:03.400Z,991.2
2017-12-31T03:21:04.787Z,991.2
2017-12-31T03:22:06.178Z,991.3
2017-12-31T03:23:07.569Z,991.2
2017-12-31T03:24:08.955Z,991.3
2017-12-31T03:25:10.342Z,991.2
2017-12-31T03:26:11.731Z,991.3
2017-12-31T03:27:13.116Z,991.3
2017-12-31T03:28:14.507Z,991.4
2017-12-31T03:29:15.896Z,991.2
2017-12-31T03:30:17.286Z,991.3
2017-12-31T03:31:18.675Z,991.4
2017-12-31T03:32:20.058Z,991.2
2017-12-31T03:33:21.448Z,991.4
2017-12-31T03:34:22.836Z,991.4
2017-12-31T03:35:24.225Z,991.4
2017-12-31T03:36:25.617Z,991.3
2017-12-31T03:37:27.008Z,991.3
2017-12-31T03:38:28.394Z,991.5
2017-12-31T03:39:29.781Z,991.3
2017-12-31T03:40:31.167Z,991.3
2017-12-31T03:41:32.557Z,991.3
2017-12-31T03:42:33.946Z,991.2
2017-12-31T03:43:35.336Z,991.3
2017-12-31T03:44:36.727Z,991.4
2017-12-31T03:45:38.113Z,991.3
2017-12-31T03:46:39.501Z,991.2
2017-12-31T03:47:40.912Z,991.3
2017-12-31T03:48:42.362Z,991.3
2017-12-31T03:49:43.756Z,991.2
2017-12-31T03:50:45.201Z,991.3
2017-12-31T03:51:46.537Z,991.3
2017-12-31T03:52:47.923Z,991.2
2017-12-31T03:53:49.309Z,991.2
2017-12-31T03:54:50.695Z,991.1
2017-12-31T03:55:52.087Z,991.1
2017-12-31T03:56:53.472Z,991.1
2017-12-31T03:57:54.860Z,991.1
2017-12-31T03:58:56.250Z,991.2
2017-12-31T03:59:57.635Z,991.3
2017-12-31T04:00:59.024Z,991.2
2017-12-31T04:02:00.411Z,991.2
2017-12-31T04:03:01.795Z,991.1
2017-12-31T04:04:03.182Z,991.3
2017-12-31T04:05:04.569Z,991.2
2017-12-31T04:06:05.959Z,991.2
2017-12-31T04:07:07.344Z,991.2
2017-12-31T04:08:08.730Z,991.3
2017-12-31T04:09:10.116Z,991.3
2017-12-31T04:10:11.502Z,991.1
2017-12-31T04:11:12.891Z,991.0
2017-12-31T04:12:14.278Z,991.3
2017-12-31T04:13:15.669Z,991.2
2017-12-31T04:14:17.056Z,991.2
2017-12-31T04:15:18.445Z,991.2
2017-12-31T04:16:19.829Z,991.2
2017-12-31T04:17:21.217Z,991.1
2017-12-31T04:18:22.604Z,991.4
2017-12-31T04:19:23.995Z,991.4
2017-12-31T04:20:25.382Z,991.1
2017-12-31T04:21:26.767Z,991.1
2017-12-31T04:22:28.151Z,991.1
2017-12-31T04:23:29.537Z,991.1
2017-12-31T04:24:30.925Z,991.0
2017-12-31T04:25:32.315Z,991.2
2017-12-31T04:26:33.704Z,991.2
2017-12-31T04:27:35.095Z,991.0
2017-12-31T04:28:36.476Z,991.0
2017-12-31T04:29:37.864Z,991.0
2017-12-31T04:30:39.251Z,991.1
2017-12-31T04:31:40.640Z,991.1
2017-12-31T04:32:42.027Z,991.2
2017-12-31T04:33:43.415Z,991.3
2017-12-31T04:34:44.803Z,991.2
2017-12-31T04:35:46.190Z,991.1
2017-12-31T04:36:47.575Z,991.1
2017-12-31T04:37:48.960Z,991.2
2017-12-31T04:38:50.345Z,991.2
2017-12-31T04:39:51.736Z,991.1
2017-12-31T04:40:53.232Z,991.4
2017-12-31T04:41:54.642Z,991.3
2017-12-31T04:42:56.030Z,991.2
2017-12-31T04:43:57.414Z,991.2
2017-12-31T04:44:58.802Z,991.2
2017-12-31T04:46:00.192Z,991.1
2017-12-31T04:47:01.581Z,991.1
2017-12-31T04:48:02.969Z,991.2
2017-12-31T04:49:04.357Z,991.1
2017-12-31T04:50:05.746Z,991.2
2017-12-31T04:51:07.133Z,991.1
2017-12-31T04:52:08.519Z,991.2
2017-12-31T04:53:09.904Z,991.1
2017-12-31T04:54:11.295Z,991.1
2017-12-31T04:55:12.685Z,991.2
2017-12-31T04:56:14.072Z,991.1
2017-12-31T04:57:15.456Z,991.2
2017-12-31T04:58:16.844Z,991.1
2017-12-31T04:59:18.232Z,991.0
2017-12-31T05:00:19.620Z,991.1
2017-12-31T05:01:21.008Z,991.1
2017-12-31T05:02:22.395Z,991.1
2017-12-31T05:03:23.785Z,991.1
2017-12-31T05:04:25.172Z,991.1
2017-12-31T05:05:26.559Z,991.1
2017-12-31T05:06:27.946Z,991.1
2017-12-31T05:07:29.333Z,991.1
2017-12-31T05:08:30.722Z,991.0
2017-12-31T05:09:32.112Z,991.1
2017-12-31T05:10:33.498Z,991.2
2017-12-31T05:11:34.884Z,991.1
2017-12-31T05:12:36.269Z,991.0
2017-12-31T05:13:37.656Z,991.1
2017-12-31T05:14:39.041Z,991.1
2017-12-31T05:15:40.438Z,991.1
2017-12-31T05:16:41.818Z,991.2
2017-12-31T05:17:43.203Z,991.4
2017-12-31T05:18:44.589Z,991.1
2017-12-31T05:19:45.974Z,991.1
2017-12-31T05:20:47.364Z,991.2
2017-12-31T05:21:48.754Z,991.2
2017-12-31T05:22:50.138Z,991.2
2017-12-31T05:23:51.528Z,991.3
2017-12-31T05:24:52.918Z,991.1
2017-12-31T05:25:54.305Z,991.2
2017-12-31T05:26:55.694Z,991.2
2017-12-31T05:27:57.079Z,991.3
2017-12-31T05:28:58.469Z,991.3
2017-12-31T05:29:59.856Z,991.2
2017-12-31T05:31:01.245Z,991.2
2017-12-31T05:32:02.661Z,991.2
2017-12-31T05:33:04.037Z,991.4
2017-12-31T05:34:05.438Z,991.3
2017-12-31T05:35:06.828Z,991.3
2017-12-31T05:36:08.217Z,991.5
2017-12-31T05:37:09.601Z,991.4
2017-12-31T05:38:10.989Z,991.4
2017-12-31T05:39:12.380Z,991.6
2017-12-31T05:40:13.766Z,991.4
2017-12-31T05:41:15.152Z,991.5
2017-12-31T05:42:16.538Z,991.5
2017-12-31T05:43:17.924Z,991.5
2017-12-31T05:44:19.312Z,991.5
2017-12-31T05:45:20.700Z,991.4
2017-12-31T05:46:22.091Z,991.5
2017-12-31T05:47:23.476Z,991.3
2017-12-31T05:48:24.863Z,991.5
2017-12-31T05:49:26.253Z,991.6
2017-12-31T05:50:27.637Z,991.5
2017-12-31T05:51:29.026Z,991.4
2017-12-31T05:52:30.412Z,991.5
2017-12-31T05:53:31.799Z,991.5
2017-12-31T05:54:33.187Z,991.5
2017-12-31T05:55:34.572Z,991.4
2017-12-31T05:56:35.959Z,991.5
2017-12-31T05:57:37.344Z,991.3
2017-12-31T05:58:38.738Z,991.4
2017-12-31T05:59:40.125Z,991.4
2017-12-31T06:00:41.512Z,991.5
2017-12-31T06:01:42.899Z,991.3
2017-12-31T06:02:44.286Z,991.4
2017-12-31T06:03:45.672Z,991.5
2017-12-31T06:04:47.061Z,991.6
2017-12-31T06:05:48.449Z,991.6
2017-12-31T06:06:49.839Z,991.6
2017-12-31T06:07:51.225Z,991.5
2017-12-31T06:08:52.610Z,991.5
2017-12-31T06:09:53.994Z,991.4
2017-12-31T06:10:55.382Z,991.5
2017-12-31T06:11:56.770Z,991.4
2017-12-31T06:12:58.160Z,991.5
2017-12-31T06:13:59.547Z,991.5
2017-12-31T06:15:00.965Z,991.5
2017-12-31T06:16:02.351Z,991.4
2017-12-31T06:17:03.735Z,991.3
2017-12-31T06:18:05.122Z,991.4
2017-12-31T06:19:06.512Z,991.3
2017-12-31T06:20:07.900Z,991.4
2017-12-31T06:21:09.290Z,991.4
2017-12-31T06:22:10.678Z,991.2
2017-12-31T06:23:12.064Z,991.2
2017-12-31T06:24:13.504Z,991.4
2017-12-31T06:25:14.955Z,991.3
2017-12-31T06:26:16.344Z,991.4
2017-12-31T06:27:17.732Z,991.3
2017-12-31T06:28:19.121Z,991.3
2017-12-31T06:29:20.508Z,991.5
2017-12-31T06:30:21.897Z,991.4
2017-12-31T06:31:23.284Z,991.4
2017-12-31T06:32:24.669Z,991.4
2017-12-31T06:33:26.057Z,991.4
2017-12-31T06:34:27.443Z,991.3
2017-12-31T06:35:28.831Z,991.6
2017-12-31T06:36:30.219Z,991.5
2017-12-31T06:37:31.613Z,991.4
2017-12-31T06:38:32.995Z,991.5
2017-12-31T06:39:34.381Z,991.5
2017-12-31T06:40:35.765Z,991.6
2017-12-31T06:41:37.171Z,991.5
2017-12-31T06:42:38.559Z,991.6
2017-12-31T06:43:39.951Z,991.4
2017-12-31T06:44:41.335Z,991.3
2017-12-31T06:45:42.719Z,991.3
2017-12-31T06:46:44.108Z,991.5
2017-12-31T06:47:45.495Z,991.4
2017-12-31T06:48:46.887Z,991.3
2017-12-31T06:49:48.273Z,991.2
2017-12-31T06:50:49.662Z,991.3
2017-12-31T06:51:51.050Z,991.2
2017-12-31T06:52:52.435Z,991.2
2017-12-31T06:53:53.821Z,991.2
2017-12-31T06:54:55.208Z,991.5
2017-12-31T06:55:56.595Z,991.3
2017-12-31T06:56:57.982Z,991.1
2017-12-31T06:57:59.372Z,991.1
2017-12-31T06:59:00.758Z,991.3
2017-12-31T07:00:02.145Z,991.2
2017-12-31T07:01:03.534Z,991.1
2017-12-31T07:02:04.918Z,991.1
2017-12-31T07:03:06.304Z,991.3
2017-12-31T07:04:07.697Z,991.2
2017-12-31T07:05:09.084Z,991.2
2017-12-31T07:06:10.473Z,991.1
2017-12-31T07:07:11.859Z,991.2
2017-12-31T07:08:13.247Z,991.2
2017-12-31T07:09:14.633Z,991.2
2017-12-31T07:10:16.022Z,991.2
2017-12-31T07:11:17.409Z,991.2
2017-12-31T07:12:18.797Z,991.1
2017-12-31T07:13:20.183Z,991.1
2017-12-31T07:14:21.566Z,991.1
2017-12-31T07:15:22.954Z,991.1
2017-12-31T07:16:24.426Z,991.1
2017-12-31T07:17:25.830Z,991.0
2017-12-31T07:18:27.218Z,991.1
2017-12-31T07:19:28.604Z,991.1
2017-12-31T07:20:29.995Z,991.1
2017-12-31T07:21:31.383Z,991.2
2017-12-31T07:22:32.770Z,991.1
2017-12-31T07:23:34.160Z,991.2
2017-12-31T07:24:35.551Z,991.0
2017-12-31T07:25:36.933Z,991.0
2017-12-31T07:26:38.326Z,991.1
2017-12-31T07:27:39.711Z,991.1
2017-12-31T07:28:41.104Z,991.0
2017-12-31T07:29:42.486Z,991.1
2017-12-31T07:30:43.873Z,991.1
2017-12-31T07:31:45.263Z,991.1
2017-12-31T07:32:46.651Z,991.2
2017-12-31T07:33:48.042Z,991.2
2017-12-31T07:34:49.434Z,991.2
2017-12-31T07:35:50.820Z,991.4
2017-12-31T07:36:52.211Z,991.1
2017-12-31T07:37:53.602Z,991.1
2017-12-31T07:38:54.989Z,991.2
2017-12-31T07:39:56.396Z,991.2
2017-12-31T07:40:57.769Z,991.2
2017-12-31T07:41:59.153Z,991.3
2017-12-31T07:43:00.539Z,991.1
2017-12-31T07:44:01.929Z,991.1
2017-12-31T07:45:03.317Z,991.3
2017-12-31T07:46:04.706Z,991.3
2017-12-31T07:47:06.098Z,991.4
2017-12-31T07:48:07.491Z,991.2
2017-12-31T07:49:08.882Z,991.4
2017-12-31T07:50:10.270Z,991.4
2017-12-31T07:51:11.659Z,991.4
2017-12-31T07:52:13.051Z,991.5
2017-12-31T07:53:14.439Z,991.5
2017-12-31T07:54:15.829Z,991.4
2017-12-31T07:55:17.226Z,991.5
2017-12-31T07:56:18.608Z,991.4
2017-12-31T07:57:19.999Z,991.4
2017-12-31T07:58:21.388Z,991.4
2017-12-31T07:59:22.777Z,991.4
2017-12-31T08:00:24.167Z,991.4
2017-12-31T08:01:25.560Z,991.3
2017-12-31T08:02:26.950Z,991.5
2017-12-31T08:03:28.340Z,991.3
2017-12-31T08:04:29.729Z,991.2
2017-12-31T08:05:31.119Z,991.6
2017-12-31T08:06:32.509Z,991.3
2017-12-31T08:07:33.966Z,991.4
2017-12-31T08:08:35.391Z,991.4
2017-12-31T08:09:36.804Z,991.5
2017-12-31T08:10:38.196Z,991.4
2017-12-31T08:11:39.587Z,991.4
2017-12-31T08:12:40.980Z,991.4
2017-12-31T08:13:42.370Z,991.3
2017-12-31T08:14:43.760Z,991.3
2017-12-31T08:15:45.152Z,991.4
2017-12-31T08:16:46.544Z,991.4
2017-12-31T08:17:47.931Z,991.3
2017-12-31T08:18:49.327Z,991.4
2017-12-31T08:19:50.716Z,991.4
2017-12-31T08:20:52.105Z,991.3
2017-12-31T08:21:53.506Z,991.4
2017-12-31T08:22:54.889Z,991.4
2017-12-31T08:23:56.284Z,991.3
2017-12-31T08:24:57.676Z,991.4
2017-12-31T08:25:59.066Z,991.3
2017-12-31T08:27:00.456Z,991.5
2017-12-31T08:28:01.848Z,991.3
2017-12-31T08:29:03.238Z,991.4
2017-12-31T08:30:04.631Z,991.5
2017-12-31T08:31:06.023Z,991.5
2017-12-31T08:32:07.413Z,991.4
2017-12-31T08:33:08.805Z,991.5
2017-12-31T08:34:10.161Z,991.3
2017-12-31T08:35:11.551Z,991.5
2017-12-31T08:36:12.942Z,991.5
2017-12-31T08:37:14.332Z,991.3
2017-12-31T08:38:15.729Z,991.4
2017-12-31T08:39:17.121Z,991.4
2017-12-31T08:40:18.512Z,991.5
2017-12-31T08:41:19.902Z,991.4
2017-12-31T08:42:21.296Z,991.4
2017-12-31T08:43:22.692Z,991.5
2017-12-31T08:44:24.081Z,991.4
2017-12-31T08:45:25.472Z,991.4
2017-12-31T08:46:26.864Z,991.5
2017-12-31T08:47:28.254Z,991.4
2017-12-31T08:48:29.645Z,991.3
2017-12-31T08:49:31.037Z,991.4
2017-12-31T08:50:32.428Z,991.4
2017-12-31T08:51:33.820Z,991.3
2017-12-31T08:52:35.213Z,991.4
2017-12-31T08:53:36.600Z,991.3
2017-12-31T08:54:37.990Z,991.3
2017-12-31T08:55:39.381Z,991.3
2017-12-31T08:56:40.772Z,991.3
2017-12-31T08:57:42.166Z,991.3
2017-12-31T08:58:43.556Z,991.4
2017-12-31T08:59:44.972Z,991.3
2017-12-31T09:00:46.361Z,991.4
2017-12-31T09:01:47.751Z,991.3
2017-12-31T09:02:49.142Z,991.4
2017-12-31T09:03:50.531Z,991.4
2017-12-31T09:04:51.924Z,991.4
2017-12-31T09:05:53.315Z,991.3
2017-12-31T09:06:54.709Z,991.3
2017-12-31T09:07:56.096Z,991.3
2017-12-31T09:08:57.486Z,991.4
2017-12-31T09:09:58.876Z,991.5
2017-12-31T09:11:00.264Z,991.5
2017-12-31T09:12:01.657Z,991.5
2017-12-31T09:13:03.048Z,991.4
2017-12-31T09:14:04.441Z,991.5
2017-12-31T09:15:05.831Z,991.5
2017-12-31T09:16:07.219Z,991.4
2017-12-31T09:17:08.608Z,991.6
2017-12-31T09:18:10.004Z,991.6
2017-12-31T09:19:11.390Z,991.4
2017-12-31T09:20:12.780Z,991.4
2017-12-31T09:21:14.174Z,991.7
2017-12-31T09:22:15.559Z,991.5
2017-12-31T09:23:16.947Z,991.5
2017-12-31T09:24:18.340Z,991.5
2017-12-31T09:25:19.732Z,991.6
2017-12-31T09:26:21.125Z,991.5
2017-12-31T09:27:22.517Z,991.5
2017-12-31T09:28:23.911Z,991.5
2017-12-31T09:29:25.299Z,991.6
2017-12-31T09:30:26.690Z,991.5
2017-12-31T09:31:28.080Z,991.5
2017-12-31T09:32:29.475Z,991.5
2017-12-31T09:33:30.873Z,991.5
2017-12-31T09:34:32.256Z,991.6
2017-12-31T09:35:33.650Z,991.5
2017-12-31T09:36:35.042Z,991.5
2017-12-31T09:37:36.429Z,991.5
2017-12-31T09:38:37.819Z,991.7
2017-12-31T09:39:39.212Z,991.6
2017-12-31T09:40:40.601Z,991.6
2017-12-31T09:41:42.005Z,991.7
2017-12-31T09:42:43.399Z,991.6
2017-12-31T09:43:44.790Z,991.6
2017-12-31T09:44:46.183Z,991.5
2017-12-31T09:45:47.575Z,991.6
2017-12-31T09:46:48.973Z,991.6
2017-12-31T09:47:50.359Z,991.6
2017-12-31T09:48:51.752Z,991.6
2017-12-31T09:49:53.145Z,991.5
2017-12-31T09:50:54.599Z,991.6
2017-12-31T09:51:56.000Z,991.6
2017-12-31T09:52:57.392Z,991.4
2017-12-31T09:53:58.791Z,991.6
2017-12-31T09:55:00.175Z,991.5
2017-12-31T09:56:01.570Z,991.6
2017-12-31T09:57:02.963Z,991.6
2017-12-31T09:58:04.355Z,991.6
2017-12-31T09:59:05.744Z,991.6
2017-12-31T10:00:07.134Z,991.6
2017-12-31T10:01:08.525Z,991.5
2017-12-31T10:02:09.919Z,991.7
2017-12-31T10:03:11.310Z,991.6
2017-12-31T10:04:12.708Z,991.6
2017-12-31T10:05:14.094Z,991.5
2017-12-31T10:06:15.490Z,991.5
2017-12-31T10:07:16.879Z,991.5
2017-12-31T10:08:18.268Z,991.5
2017-12-31T10:09:19.662Z,991.5
2017-12-31T10:10:21.055Z,991.3
2017-12-31T10:11:22.449Z,991.3
2017-12-31T10:12:23.850Z,991.4
2017-12-31T10:13:25.231Z,991.3
2017-12-31T10:14:26.622Z,991.3
2017-12-31T10:15:28.013Z,991.3
2017-12-31T10:16:29.405Z,991.3
2017-12-31T10:17:30.796Z,991.1
2017-12-31T10:18:32.193Z,991.3
2017-12-31T10:19:33.584Z,991.2
2017-12-31T10:20:34.971Z,991.3
2017-12-31T10:21:36.363Z,991.1
2017-12-31T10:22:37.760Z,991.1
2017-12-31T10:23:39.150Z,991.1
2017-12-31T10:24:40.542Z,991.2
2017-12-31T10:25:41.942Z,991.2
2017-12-31T10:26:43.336Z,991.1
2017-12-31T10:27:44.723Z,991.0
2017-12-31T10:28:46.118Z,991.1
2017-12-31T10:29:47.509Z,990.9
2017-12-31T10:30:48.898Z,991.1
2017-12-31T10:31:50.291Z,991.1
2017-12-31T10:32:51.687Z,990.9
2017-12-31T10:33:53.078Z,991.0
2017-12-31T10:34:54.469Z,991.0
2017-12-31T10:35:55.859Z,990.9
2017-12-31T10:36:57.251Z,990.8
2017-12-31T10:37:58.643Z,990.8
2017-12-31T10:39:00.040Z,990.8
2017-12-31T10:40:01.432Z,990.9
2017-12-31T10:41:02.823Z,990.8
2017-12-31T10:42:04.216Z,990.9
2017-12-31T10:43:05.631Z,990.9
2017-12-31T10:44:07.090Z,990.9
2017-12-31T10:45:08.485Z,990.8
2017-12-31T10:46:09.882Z,990.9
2017-12-31T10:47:11.274Z,991.0
2017-12-31T10:48:12.665Z,990.9
2017-12-31T10:49:14.061Z,991.0
2017-12-31T10:50:15.454Z,991.0
2017-12-31T10:51:16.846Z,991.0
2017-12-31T10:52:18.240Z,991.1
2017-12-31T10:53:19.634Z,991.0
2017-12-31T10:54:21.030Z,991.1
2017-12-31T10:55:22.420Z,991.1
2017-12-31T10:56:23.813Z,991.1
2017-12-31T10:57:25.201Z,991.0
2017-12-31T10:58:26.594Z,991.0
2017-12-31T10:59:27.990Z,991.1
2017-12-31T11:00:29.385Z,990.9
2017-12-31T11:01:30.781Z,991.0
2017-12-31T11:02:32.175Z,991.0
2017-12-31T11:03:33.564Z,991.2
2017-12-31T11:04:34.961Z,991.0
2017-12-31T11:05:36.351Z,990.9
2017-12-31T11:06:37.746Z,990.5
2017-12-31T11:07:39.141Z,990.7
2017-12-31T11:08:40.535Z,990.9
2017-12-31T11:09:41.929Z,990.9
2017-12-31T11:10:43.321Z,990.8
2017-12-31T11:11:44.717Z,990.8
2017-12-31T11:12:46.110Z,990.7
2017-12-31T11:13:47.503Z,990.8
2017-12-31T11:14:48.896Z,990.7
2017-12-31T11:15:50.290Z,990.8
2017-12-31T11:16:51.683Z,990.9
2017-12-31T11:17:53.076Z,990.7
2017-12-31T11:18:54.470Z,990.6
2017-12-31T11:19:55.867Z,990.6
2017-12-31T11:20:57.292Z,990.8
2017-12-31T11:21:58.652Z,990.8
2017-12-31T11:23:00.047Z,990.6
2017-12-31T11:24:01.440Z,990.7
2017-12-31T11:25:02.833Z,990.6
2017-12-31T11:26:04.228Z,990.6
2017-12-31T11:27:05.623Z,990.6
2017-12-31T11:28:07.017Z,990.6
2017-12-31T11:29:08.415Z,990.5
2017-12-31T11:30:09.811Z,990.6
2017-12-31T11:31:11.202Z,990.5
2017-12-31T11:32:12.597Z,990.5
2017-12-31T11:33:13.992Z,990.6
2017-12-31T11:34:15.465Z,990.3
2017-12-31T11:35:16.876Z,990.3
2017-12-31T11:36:18.276Z,990.3
2017-12-31T11:37:19.667Z,990.3
2017-12-31T11:38:21.063Z,990.4
2017-12-31T11:39:22.458Z,990.4
2017-12-31T11:40:23.851Z,990.3
2017-12-31T11:41:25.247Z,990.4
2017-12-31T11:42:26.644Z,990.4
2017-12-31T11:43:28.041Z,990.3
2017-12-31T11:44:29.436Z,990.3
2017-12-31T11:45:30.829Z,990.3
2017-12-31T11:46:32.221Z,990.2
2017-12-31T11:47:33.616Z,990.3
2017-12-31T11:48:35.010Z,990.2
2017-12-31T11:49:36.408Z,990.2
2017-12-31T11:50:37.801Z,990.2
2017-12-31T11:51:39.197Z,990.1
2017-12-31T11:52:40.590Z,990.1
2017-12-31T11:53:41.985Z,990.0
2017-12-31T11:54:43.378Z,990.1
2017-12-31T11:55:44.772Z,990.0
2017-12-31T11:56:46.167Z,989.9
2017-12-31T11:57:47.562Z,990.0
2017-12-31T11:58:48.957Z,989.9
2017-12-31T11:59:50.351Z,989.9
2017-12-31T12:00:51.745Z,990.0
2017-12-31T12:01:53.140Z,989.8
2017-12-31T12:02:54.537Z,989.9
2017-12-31T12:03:55.936Z,990.0
2017-12-31T12:04:57.326Z,990.0
2017-12-31T12:05:58.723Z,989.9
2017-12-31T12:07:00.114Z,989.8
2017-12-31T12:08:01.509Z,990.1
2017-12-31T12:09:02.902Z,990.0
2017-12-31T12:10:04.298Z,989.8
2017-12-31T12:11:05.697Z,989.8
2017-12-31T12:12:07.093Z,990.0
2017-12-31T12:13:08.491Z,990.0
2017-12-31T12:14:09.886Z,989.9
2017-12-31T12:15:11.278Z,989.9
2017-12-31T12:16:12.673Z,989.8
2017-12-31T12:17:14.067Z,989.8
2017-12-31T12:18:15.463Z,989.7
2017-12-31T12:19:16.858Z,989.7
2017-12-31T12:20:18.257Z,989.6
2017-12-31T12:21:19.650Z,989.5
2017-12-31T12:22:21.041Z,989.9
2017-12-31T12:23:22.437Z,989.6
2017-12-31T12:24:23.838Z,989.7
2017-12-31T12:25:25.264Z,989.7
2017-12-31T12:26:26.663Z,989.6
2017-12-31T12:27:28.061Z,989.5
2017-12-31T12:28:29.453Z,989.6
2017-12-31T12:29:30.846Z,989.5
2017-12-31T12:30:32.244Z,989.6
2017-12-31T12:31:33.639Z,989.5
2017-12-31T12:32:35.034Z,989.5
2017-12-31T12:33:36.429Z,989.5
2017-12-31T12:34:37.826Z,989.3
2017-12-31T12:35:39.219Z,989.4
2017-12-31T12:36:40.613Z,989.4
2017-12-31T12:37:42.009Z,989.5
2017-12-31T12:38:43.440Z,989.4
2017-12-31T12:39:44.798Z,989.4
2017-12-31T12:40:46.194Z,989.5
2017-12-31T12:41:47.588Z,989.3
2017-12-31T12:42:48.980Z,989.4
2017-12-31T12:43:50.372Z,989.4
2017-12-31T12:44:51.768Z,989.3
2017-12-31T12:45:53.166Z,989.2
2017-12-31T12:46:54.559Z,989.1
2017-12-31T12:47:55.958Z,989.1
2017-12-31T12:48:57.355Z,989.1
2017-12-31T12:49:58.752Z,989.1
2017-12-31T12:51:00.143Z,989.0
2017-12-31T12:52:01.536Z,989.0
2017-12-31T12:53:02.929Z,989.0
2017-12-31T12:54:04.325Z,989.0
2017-12-31T12:55:05.719Z,989.1
2017-12-31T12:56:07.115Z,989.0
2017-12-31T12:57:08.510Z,988.8
2017-12-31T12:58:09.903Z,988.8
2017-12-31T12:59:11.295Z,988.8
2017-12-31T13:00:12.690Z,988.8
2017-12-31T13:01:14.084Z,988.7
2017-12-31T13:02:15.481Z,988.7
2017-12-31T13:03:16.877Z,988.7
2017-12-31T13:04:18.270Z,988.6
2017-12-31T13:05:19.664Z,988.5
2017-12-31T13:06:21.056Z,988.6
2017-12-31T13:07:22.451Z,988.6
2017-12-31T13:08:23.844Z,988.5
2017-12-31T13:09:25.240Z,988.5
2017-12-31T13:10:26.636Z,988.5